sensor_id;sensor_type;location;lat;lon;timestamp;P1;durP1;ratioP1;P2;durP2;ratioP2
43986;SDS011;29650;47.378;8.300;2023-09-12T00:01:22;11.32;;;8.25;;
43986;SDS011;29650;47.378;8.300;2023-09-12T00:03:51;13.10;;;8.82;;
43986;SDS011;29650;47.378;8.300;2023-09-12T00:06:18;12.30;;;8.63;;
43986;SDS011;29650;47.378;8.300;2023-09-12T00:08:45;12.02;;;8.13;;
43986;SDS011;29650;47.378;8.300;2023-09-12T00:11:12;11.90;;;9.50;;
43986;SDS011;29650;47.378;8.300;2023-09-12T00:13:39;10.65;;;8.18;;
43986;SDS011;29650;47.378;8.300;2023-09-12T00:16:07;11.30;;;8.30;;
43986;SDS011;29650;47.378;8.300;2023-09-12T00:18:35;9.27;;;7.93;;
43986;SDS011;29650;47.378;8.300;2023-09-12T00:21:04;12.38;;;8.57;;
43986;SDS011;29650;47.378;8.300;2023-09-12T00:23:31;17.88;;;9.18;;
43986;SDS011;29650;47.378;8.300;2023-09-12T00:25:58;10.90;;;8.20;;
43986;SDS011;29650;47.378;8.300;2023-09-12T00:28:25;11.13;;;8.35;;
43986;SDS011;29650;47.378;8.300;2023-09-12T00:30:52;9.85;;;8.02;;
43986;SDS011;29650;47.378;8.300;2023-09-12T00:33:19;9.90;;;8.05;;
43986;SDS011;29650;47.378;8.300;2023-09-12T00:35:46;8.75;;;7.93;;
43986;SDS011;29650;47.378;8.300;2023-09-12T00:38:14;18.23;;;8.23;;
43986;SDS011;29650;47.378;8.300;2023-09-12T00:40:41;13.23;;;9.20;;
43986;SDS011;29650;47.378;8.300;2023-09-12T00:43:08;10.48;;;9.07;;
43986;SDS011;29650;47.378;8.300;2023-09-12T00:45:36;13.18;;;8.40;;
43986;SDS011;29650;47.378;8.300;2023-09-12T00:48:04;13.40;;;9.00;;
43986;SDS011;29650;47.378;8.300;2023-09-12T00:50:32;12.63;;;9.25;;
43986;SDS011;29650;47.378;8.300;2023-09-12T00:52:59;13.27;;;9.27;;
43986;SDS011;29650;47.378;8.300;2023-09-12T00:55:30;10.55;;;9.50;;
43986;SDS011;29650;47.378;8.300;2023-09-12T00:57:58;12.52;;;8.80;;
43986;SDS011;29650;47.378;8.300;2023-09-12T01:00:26;11.88;;;10.40;;
43986;SDS011;29650;47.378;8.300;2023-09-12T01:02:54;11.15;;;9.95;;
43986;SDS011;29650;47.378;8.300;2023-09-12T01:05:21;11.00;;;9.35;;
43986;SDS011;29650;47.378;8.300;2023-09-12T01:07:49;15.63;;;9.98;;
43986;SDS011;29650;47.378;8.300;2023-09-12T01:10:16;12.60;;;9.15;;
43986;SDS011;29650;47.378;8.300;2023-09-12T01:12:45;13.88;;;9.93;;
43986;SDS011;29650;47.378;8.300;2023-09-12T01:15:12;13.43;;;9.67;;
43986;SDS011;29650;47.378;8.300;2023-09-12T01:17:40;11.93;;;9.68;;
43986;SDS011;29650;47.378;8.300;2023-09-12T01:20:08;15.63;;;10.83;;
43986;SDS011;29650;47.378;8.300;2023-09-12T01:22:52;12.35;;;9.07;;
43986;SDS011;29650;47.378;8.300;2023-09-12T01:28:30;11.95;;;9.75;;
43986;SDS011;29650;47.378;8.300;2023-09-12T01:31:00;15.80;;;9.50;;
43986;SDS011;29650;47.378;8.300;2023-09-12T01:33:29;14.18;;;10.65;;
43986;SDS011;29650;47.378;8.300;2023-09-12T01:35:56;11.32;;;9.38;;
43986;SDS011;29650;47.378;8.300;2023-09-12T01:38:23;15.45;;;10.38;;
43986;SDS011;29650;47.378;8.300;2023-09-12T01:40:50;14.35;;;10.18;;
43986;SDS011;29650;47.378;8.300;2023-09-12T01:43:21;13.32;;;9.75;;
43986;SDS011;29650;47.378;8.300;2023-09-12T01:45:52;12.23;;;8.68;;
43986;SDS011;29650;47.378;8.300;2023-09-12T01:48:20;17.70;;;10.05;;
43986;SDS011;29650;47.378;8.300;2023-09-12T01:50:49;14.45;;;9.20;;
43986;SDS011;29650;47.378;8.300;2023-09-12T01:53:16;10.88;;;8.82;;
43986;SDS011;29650;47.378;8.300;2023-09-12T01:55:45;13.38;;;8.88;;
43986;SDS011;29650;47.378;8.300;2023-09-12T01:58:13;16.02;;;9.65;;
43986;SDS011;29650;47.378;8.300;2023-09-12T02:00:41;14.13;;;9.00;;
43986;SDS011;29650;47.378;8.300;2023-09-12T02:03:09;14.65;;;9.45;;
43986;SDS011;29650;47.378;8.300;2023-09-12T02:05:36;14.40;;;9.75;;
43986;SDS011;29650;47.378;8.300;2023-09-12T02:08:04;11.63;;;8.68;;
43986;SDS011;29650;47.378;8.300;2023-09-12T02:10:31;13.55;;;9.85;;
43986;SDS011;29650;47.378;8.300;2023-09-12T02:12:58;15.52;;;10.10;;
43986;SDS011;29650;47.378;8.300;2023-09-12T02:15:25;14.20;;;9.18;;
43986;SDS011;29650;47.378;8.300;2023-09-12T02:17:52;10.50;;;9.27;;
43986;SDS011;29650;47.378;8.300;2023-09-12T02:20:20;13.85;;;9.15;;
43986;SDS011;29650;47.378;8.300;2023-09-12T02:22:47;11.60;;;10.13;;
43986;SDS011;29650;47.378;8.300;2023-09-12T02:25:14;13.23;;;10.73;;
43986;SDS011;29650;47.378;8.300;2023-09-12T02:27:41;13.48;;;8.88;;
43986;SDS011;29650;47.378;8.300;2023-09-12T02:30:08;13.48;;;9.43;;
43986;SDS011;29650;47.378;8.300;2023-09-12T02:32:35;11.95;;;9.45;;
43986;SDS011;29650;47.378;8.300;2023-09-12T02:35:02;16.45;;;11.18;;
43986;SDS011;29650;47.378;8.300;2023-09-12T02:37:31;14.68;;;9.95;;
43986;SDS011;29650;47.378;8.300;2023-09-12T02:39:58;13.50;;;10.43;;
43986;SDS011;29650;47.378;8.300;2023-09-12T02:42:25;14.98;;;9.38;;
43986;SDS011;29650;47.378;8.300;2023-09-12T02:44:52;13.77;;;9.18;;
43986;SDS011;29650;47.378;8.300;2023-09-12T02:47:19;14.43;;;10.23;;
43986;SDS011;29650;47.378;8.300;2023-09-12T02:49:46;12.18;;;9.73;;
43986;SDS011;29650;47.378;8.300;2023-09-12T02:52:13;11.65;;;9.43;;
43986;SDS011;29650;47.378;8.300;2023-09-12T02:54:41;14.57;;;10.60;;
43986;SDS011;29650;47.378;8.300;2023-09-12T02:57:08;14.50;;;9.73;;
43986;SDS011;29650;47.378;8.300;2023-09-12T02:59:35;12.18;;;10.48;;
43986;SDS011;29650;47.378;8.300;2023-09-12T03:02:03;14.80;;;11.15;;
43986;SDS011;29650;47.378;8.300;2023-09-12T03:04:29;11.80;;;9.82;;
43986;SDS011;29650;47.378;8.300;2023-09-12T03:06:56;13.70;;;11.35;;
43986;SDS011;29650;47.378;8.300;2023-09-12T03:09:23;18.92;;;10.82;;
43986;SDS011;29650;47.378;8.300;2023-09-12T03:11:52;13.82;;;11.15;;
43986;SDS011;29650;47.378;8.300;2023-09-12T03:14:19;11.77;;;9.45;;
43986;SDS011;29650;47.378;8.300;2023-09-12T03:16:46;16.33;;;10.10;;
43986;SDS011;29650;47.378;8.300;2023-09-12T03:19:13;13.30;;;10.00;;
43986;SDS011;29650;47.378;8.300;2023-09-12T03:21:40;16.67;;;10.48;;
43986;SDS011;29650;47.378;8.300;2023-09-12T03:24:07;15.57;;;11.27;;
43986;SDS011;29650;47.378;8.300;2023-09-12T03:26:35;17.85;;;11.18;;
43986;SDS011;29650;47.378;8.300;2023-09-12T03:29:04;15.07;;;10.48;;
43986;SDS011;29650;47.378;8.300;2023-09-12T03:31:31;12.73;;;11.07;;
43986;SDS011;29650;47.378;8.300;2023-09-12T03:33:58;13.93;;;10.68;;
43986;SDS011;29650;47.378;8.300;2023-09-12T03:36:25;11.98;;;10.35;;
43986;SDS011;29650;47.378;8.300;2023-09-12T03:38:52;14.73;;;10.25;;
43986;SDS011;29650;47.378;8.300;2023-09-12T03:41:19;14.80;;;9.63;;
43986;SDS011;29650;47.378;8.300;2023-09-12T03:43:50;13.43;;;10.45;;
43986;SDS011;29650;47.378;8.300;2023-09-12T03:46:18;18.02;;;10.27;;
43986;SDS011;29650;47.378;8.300;2023-09-12T03:48:45;12.98;;;10.50;;
43986;SDS011;29650;47.378;8.300;2023-09-12T03:51:12;11.65;;;9.85;;
43986;SDS011;29650;47.378;8.300;2023-09-12T03:53:39;17.10;;;11.25;;
43986;SDS011;29650;47.378;8.300;2023-09-12T03:56:06;12.18;;;10.35;;
43986;SDS011;29650;47.378;8.300;2023-09-12T03:58:37;12.85;;;10.38;;
43986;SDS011;29650;47.378;8.300;2023-09-12T04:01:04;15.00;;;10.73;;
43986;SDS011;29650;47.378;8.300;2023-09-12T04:03:32;12.63;;;9.80;;
43986;SDS011;29650;47.378;8.300;2023-09-12T04:05:59;11.27;;;9.80;;
43986;SDS011;29650;47.378;8.300;2023-09-12T04:08:26;13.40;;;10.18;;
43986;SDS011;29650;47.378;8.300;2023-09-12T04:10:53;13.05;;;10.25;;
43986;SDS011;29650;47.378;8.300;2023-09-12T04:13:20;12.23;;;10.93;;
43986;SDS011;29650;47.378;8.300;2023-09-12T04:15:47;14.82;;;10.10;;
43986;SDS011;29650;47.378;8.300;2023-09-12T04:18:14;12.05;;;10.07;;
43986;SDS011;29650;47.378;8.300;2023-09-12T04:20:42;16.40;;;10.85;;
43986;SDS011;29650;47.378;8.300;2023-09-12T04:23:09;13.30;;;10.30;;
43986;SDS011;29650;47.378;8.300;2023-09-12T04:25:36;12.80;;;10.75;;
43986;SDS011;29650;47.378;8.300;2023-09-12T04:28:04;11.50;;;9.88;;
43986;SDS011;29650;47.378;8.300;2023-09-12T04:30:31;14.20;;;11.00;;
43986;SDS011;29650;47.378;8.300;2023-09-12T04:32:58;12.13;;;10.77;;
43986;SDS011;29650;47.378;8.300;2023-09-12T04:35:25;17.73;;;10.75;;
43986;SDS011;29650;47.378;8.300;2023-09-12T04:37:53;12.68;;;10.60;;
43986;SDS011;29650;47.378;8.300;2023-09-12T04:40:20;12.27;;;10.55;;
43986;SDS011;29650;47.378;8.300;2023-09-12T04:42:47;13.07;;;10.77;;
43986;SDS011;29650;47.378;8.300;2023-09-12T04:45:14;15.85;;;11.43;;
43986;SDS011;29650;47.378;8.300;2023-09-12T04:47:41;14.43;;;10.73;;
43986;SDS011;29650;47.378;8.300;2023-09-12T04:50:08;17.23;;;11.95;;
43986;SDS011;29650;47.378;8.300;2023-09-12T04:52:36;16.98;;;11.60;;
43986;SDS011;29650;47.378;8.300;2023-09-12T04:55:05;17.75;;;12.15;;
43986;SDS011;29650;47.378;8.300;2023-09-12T04:57:32;16.77;;;10.85;;
43986;SDS011;29650;47.378;8.300;2023-09-12T04:59:59;14.95;;;11.13;;
43986;SDS011;29650;47.378;8.300;2023-09-12T05:02:26;16.60;;;11.15;;
43986;SDS011;29650;47.378;8.300;2023-09-12T05:04:53;17.02;;;10.65;;
43986;SDS011;29650;47.378;8.300;2023-09-12T05:07:20;12.82;;;10.25;;
43986;SDS011;29650;47.378;8.300;2023-09-12T05:09:47;13.63;;;9.85;;
43986;SDS011;29650;47.378;8.300;2023-09-12T05:12:16;12.55;;;9.00;;
43986;SDS011;29650;47.378;8.300;2023-09-12T05:14:42;17.65;;;11.40;;
43986;SDS011;29650;47.378;8.300;2023-09-12T05:17:09;14.32;;;10.90;;
43986;SDS011;29650;47.378;8.300;2023-09-12T05:19:36;15.18;;;11.95;;
43986;SDS011;29650;47.378;8.300;2023-09-12T05:22:03;16.35;;;10.15;;
43986;SDS011;29650;47.378;8.300;2023-09-12T05:24:30;14.38;;;11.23;;
43986;SDS011;29650;47.378;8.300;2023-09-12T05:26:57;17.02;;;12.63;;
43986;SDS011;29650;47.378;8.300;2023-09-12T05:29:26;13.15;;;10.45;;
43986;SDS011;29650;47.378;8.300;2023-09-12T05:31:53;18.60;;;12.02;;
43986;SDS011;29650;47.378;8.300;2023-09-12T05:34:20;17.73;;;11.57;;
43986;SDS011;29650;47.378;8.300;2023-09-12T05:36:47;18.70;;;11.02;;
43986;SDS011;29650;47.378;8.300;2023-09-12T05:39:14;16.45;;;12.07;;
43986;SDS011;29650;47.378;8.300;2023-09-12T05:41:41;15.52;;;10.90;;
43986;SDS011;29650;47.378;8.300;2023-09-12T05:44:08;17.08;;;11.65;;
43986;SDS011;29650;47.378;8.300;2023-09-12T05:46:39;12.50;;;10.63;;
43986;SDS011;29650;47.378;8.300;2023-09-12T05:49:06;16.23;;;12.18;;
43986;SDS011;29650;47.378;8.300;2023-09-12T05:51:33;13.75;;;11.10;;
43986;SDS011;29650;47.378;8.300;2023-09-12T05:53:59;14.20;;;10.27;;
43986;SDS011;29650;47.378;8.300;2023-09-12T05:56:28;13.50;;;10.27;;
43986;SDS011;29650;47.378;8.300;2023-09-12T05:58:55;15.13;;;10.40;;
43986;SDS011;29650;47.378;8.300;2023-09-12T06:01:22;12.63;;;10.02;;
43986;SDS011;29650;47.378;8.300;2023-09-12T06:03:50;13.52;;;10.25;;
43986;SDS011;29650;47.378;8.300;2023-09-12T06:06:17;14.00;;;10.35;;
43986;SDS011;29650;47.378;8.300;2023-09-12T06:08:44;12.38;;;10.15;;
43986;SDS011;29650;47.378;8.300;2023-09-12T06:11:11;13.45;;;10.18;;
43986;SDS011;29650;47.378;8.300;2023-09-12T06:13:38;13.95;;;9.55;;
43986;SDS011;29650;47.378;8.300;2023-09-12T06:16:05;15.30;;;8.35;;
43986;SDS011;29650;47.378;8.300;2023-09-12T06:18:32;10.20;;;8.90;;
43986;SDS011;29650;47.378;8.300;2023-09-12T06:21:01;17.35;;;11.95;;
43986;SDS011;29650;47.378;8.300;2023-09-12T06:23:29;15.70;;;9.75;;
43986;SDS011;29650;47.378;8.300;2023-09-12T06:25:56;11.55;;;10.13;;
43986;SDS011;29650;47.378;8.300;2023-09-12T06:28:26;13.52;;;11.32;;
43986;SDS011;29650;47.378;8.300;2023-09-12T06:30:55;17.70;;;13.65;;
43986;SDS011;29650;47.378;8.300;2023-09-12T06:33:22;15.18;;;11.50;;
43986;SDS011;29650;47.378;8.300;2023-09-12T06:35:49;12.07;;;10.75;;
43986;SDS011;29650;47.378;8.300;2023-09-12T06:38:19;14.43;;;10.15;;
43986;SDS011;29650;47.378;8.300;2023-09-12T06:40:46;19.08;;;13.32;;
43986;SDS011;29650;47.378;8.300;2023-09-12T06:43:13;16.33;;;12.52;;
43986;SDS011;29650;47.378;8.300;2023-09-12T06:45:41;15.57;;;12.82;;
43986;SDS011;29650;47.378;8.300;2023-09-12T06:48:08;19.48;;;11.52;;
43986;SDS011;29650;47.378;8.300;2023-09-12T06:50:35;13.88;;;10.43;;
43986;SDS011;29650;47.378;8.300;2023-09-12T06:53:03;13.82;;;11.60;;
43986;SDS011;29650;47.378;8.300;2023-09-12T06:55:32;42.55;;;12.82;;
43986;SDS011;29650;47.378;8.300;2023-09-12T06:57:59;15.40;;;12.87;;
43986;SDS011;29650;47.378;8.300;2023-09-12T07:00:26;19.73;;;12.93;;
43986;SDS011;29650;47.378;8.300;2023-09-12T07:02:53;16.85;;;13.05;;
43986;SDS011;29650;47.378;8.300;2023-09-12T07:05:20;17.02;;;12.30;;
43986;SDS011;29650;47.378;8.300;2023-09-12T07:07:47;18.13;;;13.43;;
43986;SDS011;29650;47.378;8.300;2023-09-12T07:10:14;14.63;;;12.70;;
43986;SDS011;29650;47.378;8.300;2023-09-12T07:12:43;16.83;;;12.65;;
43986;SDS011;29650;47.378;8.300;2023-09-12T07:15:10;20.60;;;12.60;;
43986;SDS011;29650;47.378;8.300;2023-09-12T07:17:38;18.50;;;12.02;;
43986;SDS011;29650;47.378;8.300;2023-09-12T07:20:05;14.40;;;11.55;;
43986;SDS011;29650;47.378;8.300;2023-09-12T07:22:36;15.55;;;12.43;;
43986;SDS011;29650;47.378;8.300;2023-09-12T07:25:04;17.50;;;12.60;;
43986;SDS011;29650;47.378;8.300;2023-09-12T07:27:32;13.23;;;11.63;;
43986;SDS011;29650;47.378;8.300;2023-09-12T07:30:00;17.67;;;13.07;;
43986;SDS011;29650;47.378;8.300;2023-09-12T07:32:27;16.67;;;13.68;;
43986;SDS011;29650;47.378;8.300;2023-09-12T07:34:54;16.98;;;12.30;;
43986;SDS011;29650;47.378;8.300;2023-09-12T07:37:21;15.25;;;13.65;;
43986;SDS011;29650;47.378;8.300;2023-09-12T07:39:48;19.67;;;14.05;;
43986;SDS011;29650;47.378;8.300;2023-09-12T07:42:15;18.13;;;14.02;;
43986;SDS011;29650;47.378;8.300;2023-09-12T07:44:42;19.02;;;14.75;;
43986;SDS011;29650;47.378;8.300;2023-09-12T07:47:11;17.63;;;13.82;;
43986;SDS011;29650;47.378;8.300;2023-09-12T07:49:38;20.23;;;13.27;;
43986;SDS011;29650;47.378;8.300;2023-09-12T07:52:05;17.27;;;14.13;;
43986;SDS011;29650;47.378;8.300;2023-09-12T07:54:32;19.70;;;14.15;;
43986;SDS011;29650;47.378;8.300;2023-09-12T07:56:59;19.15;;;14.48;;
43986;SDS011;29650;47.378;8.300;2023-09-12T07:59:26;20.50;;;14.73;;
43986;SDS011;29650;47.378;8.300;2023-09-12T08:01:53;19.80;;;13.57;;
43986;SDS011;29650;47.378;8.300;2023-09-12T08:04:21;19.52;;;14.43;;
43986;SDS011;29650;47.378;8.300;2023-09-12T08:06:48;18.52;;;14.93;;
43986;SDS011;29650;47.378;8.300;2023-09-12T08:09:15;21.17;;;15.48;;
43986;SDS011;29650;47.378;8.300;2023-09-12T08:11:42;20.77;;;14.45;;
43986;SDS011;29650;47.378;8.300;2023-09-12T08:14:09;18.10;;;14.65;;
43986;SDS011;29650;47.378;8.300;2023-09-12T08:16:36;18.70;;;13.50;;
43986;SDS011;29650;47.378;8.300;2023-09-12T08:19:03;16.88;;;14.02;;
43986;SDS011;29650;47.378;8.300;2023-09-12T08:21:32;15.43;;;13.45;;
43986;SDS011;29650;47.378;8.300;2023-09-12T08:23:59;15.40;;;12.82;;
43986;SDS011;29650;47.378;8.300;2023-09-12T08:26:26;16.50;;;12.25;;
43986;SDS011;29650;47.378;8.300;2023-09-12T08:28:53;19.40;;;12.73;;
43986;SDS011;29650;47.378;8.300;2023-09-12T08:31:20;15.18;;;13.02;;
43986;SDS011;29650;47.378;8.300;2023-09-12T08:33:47;14.55;;;12.23;;
43986;SDS011;29650;47.378;8.300;2023-09-12T08:36:14;16.48;;;12.27;;
43986;SDS011;29650;47.378;8.300;2023-09-12T08:38:42;19.27;;;12.82;;
43986;SDS011;29650;47.378;8.300;2023-09-12T08:41:09;12.25;;;10.95;;
43986;SDS011;29650;47.378;8.300;2023-09-12T08:43:36;15.65;;;12.40;;
43986;SDS011;29650;47.378;8.300;2023-09-12T08:46:04;12.57;;;10.98;;
43986;SDS011;29650;47.378;8.300;2023-09-12T08:48:32;14.75;;;11.15;;
43986;SDS011;29650;47.378;8.300;2023-09-12T08:50:59;14.90;;;11.15;;
43986;SDS011;29650;47.378;8.300;2023-09-12T08:53:28;13.80;;;11.20;;
43986;SDS011;29650;47.378;8.300;2023-09-12T08:55:57;18.35;;;10.93;;
43986;SDS011;29650;47.378;8.300;2023-09-12T08:58:25;13.18;;;10.45;;
43986;SDS011;29650;47.378;8.300;2023-09-12T09:00:52;13.40;;;10.68;;
43986;SDS011;29650;47.378;8.300;2023-09-12T09:03:20;11.60;;;10.40;;
43986;SDS011;29650;47.378;8.300;2023-09-12T09:05:48;19.45;;;9.93;;
43986;SDS011;29650;47.378;8.300;2023-09-12T09:08:17;14.65;;;9.77;;
43986;SDS011;29650;47.378;8.300;2023-09-12T09:10:54;12.80;;;10.57;;
43986;SDS011;29650;47.378;8.300;2023-09-12T09:13:23;14.15;;;10.02;;
43986;SDS011;29650;47.378;8.300;2023-09-12T09:15:59;14.45;;;11.02;;
43986;SDS011;29650;47.378;8.300;2023-09-12T09:18:49;13.65;;;10.80;;
43986;SDS011;29650;47.378;8.300;2023-09-12T09:21:17;14.25;;;10.73;;
43986;SDS011;29650;47.378;8.300;2023-09-12T09:23:44;13.38;;;10.57;;
43986;SDS011;29650;47.378;8.300;2023-09-12T09:26:13;14.25;;;11.07;;
43986;SDS011;29650;47.378;8.300;2023-09-12T09:28:40;13.73;;;10.88;;
43986;SDS011;29650;47.378;8.300;2023-09-12T09:31:09;15.38;;;12.38;;
43986;SDS011;29650;47.378;8.300;2023-09-12T09:41:00;12.60;;;10.25;;
43986;SDS011;29650;47.378;8.300;2023-09-12T09:45:58;14.10;;;11.48;;
43986;SDS011;29650;47.378;8.300;2023-09-12T09:48:26;13.43;;;10.90;;
43986;SDS011;29650;47.378;8.300;2023-09-12T09:50:53;13.85;;;10.73;;
43986;SDS011;29650;47.378;8.300;2023-09-12T09:53:27;13.35;;;11.40;;
43986;SDS011;29650;47.378;8.300;2023-09-12T09:56:07;14.07;;;11.20;;
43986;SDS011;29650;47.378;8.300;2023-09-12T09:58:37;14.23;;;11.27;;
43986;SDS011;29650;47.378;8.300;2023-09-12T10:01:08;15.70;;;9.85;;
43986;SDS011;29650;47.378;8.300;2023-09-12T10:03:37;14.75;;;9.93;;
43986;SDS011;29650;47.378;8.300;2023-09-12T10:06:05;14.07;;;9.55;;
43986;SDS011;29650;47.378;8.300;2023-09-12T10:08:33;18.15;;;10.10;;
43986;SDS011;29650;47.378;8.300;2023-09-12T10:11:02;10.48;;;9.38;;
43986;SDS011;29650;47.378;8.300;2023-09-12T10:13:29;16.42;;;9.60;;
43986;SDS011;29650;47.378;8.300;2023-09-12T10:16:01;16.05;;;9.70;;
43986;SDS011;29650;47.378;8.300;2023-09-12T10:18:29;11.95;;;9.25;;
43986;SDS011;29650;47.378;8.300;2023-09-12T10:21:04;13.40;;;8.80;;
43986;SDS011;29650;47.378;8.300;2023-09-12T10:23:37;13.82;;;8.65;;
43986;SDS011;29650;47.378;8.300;2023-09-12T10:26:09;11.18;;;9.40;;
43986;SDS011;29650;47.378;8.300;2023-09-12T10:28:38;34.60;;;9.15;;
43986;SDS011;29650;47.378;8.300;2023-09-12T10:33:37;9.07;;;7.60;;
43986;SDS011;29650;47.378;8.300;2023-09-12T10:36:05;15.43;;;8.00;;
43986;SDS011;29650;47.378;8.300;2023-09-12T10:41:06;13.02;;;8.30;;
43986;SDS011;29650;47.378;8.300;2023-09-12T10:43:37;12.40;;;6.95;;
43986;SDS011;29650;47.378;8.300;2023-09-12T10:46:06;14.10;;;7.82;;
43986;SDS011;29650;47.378;8.300;2023-09-12T10:48:35;12.60;;;7.38;;
43986;SDS011;29650;47.378;8.300;2023-09-12T10:51:05;13.35;;;8.02;;
43986;SDS011;29650;47.378;8.300;2023-09-12T10:53:33;11.73;;;6.80;;
43986;SDS011;29650;47.378;8.300;2023-09-12T10:56:14;12.45;;;7.80;;
43986;SDS011;29650;47.378;8.300;2023-09-12T11:01:40;11.82;;;7.00;;
43986;SDS011;29650;47.378;8.300;2023-09-12T11:10:20;10.95;;;6.93;;
43986;SDS011;29650;47.378;8.300;2023-09-12T11:12:48;11.15;;;7.28;;
43986;SDS011;29650;47.378;8.300;2023-09-12T11:15:16;12.93;;;7.13;;
43986;SDS011;29650;47.378;8.300;2023-09-12T11:17:44;8.40;;;7.35;;
43986;SDS011;29650;47.378;8.300;2023-09-12T11:20:14;10.93;;;7.35;;
43986;SDS011;29650;47.378;8.300;2023-09-12T11:22:43;11.88;;;7.63;;
43986;SDS011;29650;47.378;8.300;2023-09-12T11:25:17;10.75;;;6.63;;
43986;SDS011;29650;47.378;8.300;2023-09-12T11:28:01;10.88;;;7.28;;
43986;SDS011;29650;47.378;8.300;2023-09-12T11:30:30;9.40;;;6.90;;
43986;SDS011;29650;47.378;8.300;2023-09-12T11:32:57;10.40;;;6.97;;
43986;SDS011;29650;47.378;8.300;2023-09-12T11:35:28;19.40;;;6.73;;
43986;SDS011;29650;47.378;8.300;2023-09-12T11:37:56;11.70;;;6.90;;
43986;SDS011;29650;47.378;8.300;2023-09-12T11:42:52;13.32;;;6.70;;
43986;SDS011;29650;47.378;8.300;2023-09-12T11:45:19;9.10;;;6.53;;
43986;SDS011;29650;47.378;8.300;2023-09-12T11:47:48;13.13;;;7.40;;
43986;SDS011;29650;47.378;8.300;2023-09-12T11:50:29;10.55;;;7.20;;
43986;SDS011;29650;47.378;8.300;2023-09-12T11:53:00;9.32;;;6.40;;
43986;SDS011;29650;47.378;8.300;2023-09-12T11:55:30;9.23;;;6.10;;
43986;SDS011;29650;47.378;8.300;2023-09-12T11:57:57;9.77;;;6.00;;
43986;SDS011;29650;47.378;8.300;2023-09-12T12:00:24;13.77;;;6.07;;
43986;SDS011;29650;47.378;8.300;2023-09-12T12:02:52;9.10;;;6.60;;
43986;SDS011;29650;47.378;8.300;2023-09-12T12:05:19;14.35;;;6.88;;
43986;SDS011;29650;47.378;8.300;2023-09-12T12:07:48;9.00;;;5.85;;
43986;SDS011;29650;47.378;8.300;2023-09-12T12:10:16;13.10;;;5.95;;
43986;SDS011;29650;47.378;8.300;2023-09-12T12:12:43;10.57;;;6.40;;
43986;SDS011;29650;47.378;8.300;2023-09-12T12:15:12;10.00;;;6.30;;
43986;SDS011;29650;47.378;8.300;2023-09-12T12:17:40;16.55;;;6.07;;
43986;SDS011;29650;47.378;8.300;2023-09-12T12:20:08;12.20;;;6.03;;
43986;SDS011;29650;47.378;8.300;2023-09-12T12:22:36;16.87;;;6.17;;
43986;SDS011;29650;47.378;8.300;2023-09-12T12:25:08;11.27;;;6.10;;
43986;SDS011;29650;47.378;8.300;2023-09-12T12:27:36;9.63;;;5.57;;
43986;SDS011;29650;47.378;8.300;2023-09-12T12:30:04;9.68;;;5.47;;
43986;SDS011;29650;47.378;8.300;2023-09-12T12:32:32;12.43;;;6.20;;
43986;SDS011;29650;47.378;8.300;2023-09-12T12:34:59;10.75;;;6.13;;
43986;SDS011;29650;47.378;8.300;2023-09-12T12:37:28;8.70;;;5.38;;
43986;SDS011;29650;47.378;8.300;2023-09-12T12:39:56;8.40;;;6.20;;
43986;SDS011;29650;47.378;8.300;2023-09-12T12:42:25;7.72;;;5.90;;
43986;SDS011;29650;47.378;8.300;2023-09-12T12:44:52;6.00;;;5.33;;
43986;SDS011;29650;47.378;8.300;2023-09-12T12:47:20;8.75;;;5.68;;
43986;SDS011;29650;47.378;8.300;2023-09-12T12:49:50;7.07;;;5.07;;
43986;SDS011;29650;47.378;8.300;2023-09-12T12:52:21;6.07;;;5.15;;
43986;SDS011;29650;47.378;8.300;2023-09-12T12:54:49;10.38;;;5.57;;
43986;SDS011;29650;47.378;8.300;2023-09-12T12:57:18;9.45;;;6.03;;
43986;SDS011;29650;47.378;8.300;2023-09-12T12:59:47;7.55;;;5.40;;
43986;SDS011;29650;47.378;8.300;2023-09-12T13:02:16;6.93;;;5.03;;
43986;SDS011;29650;47.378;8.300;2023-09-12T13:04:44;8.43;;;5.50;;
43986;SDS011;29650;47.378;8.300;2023-09-12T13:07:11;16.05;;;6.13;;
43986;SDS011;29650;47.378;8.300;2023-09-12T13:09:38;10.63;;;5.13;;
43986;SDS011;29650;47.378;8.300;2023-09-12T13:12:05;7.90;;;5.35;;
43986;SDS011;29650;47.378;8.300;2023-09-12T13:14:33;10.93;;;5.72;;
43986;SDS011;29650;47.378;8.300;2023-09-12T13:17:02;6.88;;;5.50;;
43986;SDS011;29650;47.378;8.300;2023-09-12T13:19:29;7.20;;;5.07;;
43986;SDS011;29650;47.378;8.300;2023-09-12T13:21:56;8.13;;;5.97;;
43986;SDS011;29650;47.378;8.300;2023-09-12T13:24:23;8.25;;;5.95;;
43986;SDS011;29650;47.378;8.300;2023-09-12T13:26:51;10.73;;;5.30;;
43986;SDS011;29650;47.378;8.300;2023-09-12T13:29:18;9.88;;;5.50;;
43986;SDS011;29650;47.378;8.300;2023-09-12T13:31:45;7.07;;;5.20;;
43986;SDS011;29650;47.378;8.300;2023-09-12T13:34:14;9.48;;;5.63;;
43986;SDS011;29650;47.378;8.300;2023-09-12T13:36:41;6.73;;;6.00;;
43986;SDS011;29650;47.378;8.300;2023-09-12T13:39:07;6.68;;;5.57;;
43986;SDS011;29650;47.378;8.300;2023-09-12T13:41:34;16.75;;;5.90;;
43986;SDS011;29650;47.378;8.300;2023-09-12T13:44:01;12.45;;;5.45;;
43986;SDS011;29650;47.378;8.300;2023-09-12T13:46:28;10.00;;;6.22;;
43986;SDS011;29650;47.378;8.300;2023-09-12T13:48:56;11.88;;;5.85;;
43986;SDS011;29650;47.378;8.300;2023-09-12T13:53:53;6.85;;;5.53;;
43986;SDS011;29650;47.378;8.300;2023-09-12T13:56:20;8.40;;;5.97;;
43986;SDS011;29650;47.378;8.300;2023-09-12T13:58:47;7.18;;;5.00;;
43986;SDS011;29650;47.378;8.300;2023-09-12T14:01:16;7.78;;;5.40;;
43986;SDS011;29650;47.378;8.300;2023-09-12T14:03:44;7.80;;;6.05;;
43986;SDS011;29650;47.378;8.300;2023-09-12T14:06:11;7.13;;;5.55;;
43986;SDS011;29650;47.378;8.300;2023-09-12T14:08:39;7.60;;;5.30;;
43986;SDS011;29650;47.378;8.300;2023-09-12T14:11:06;7.53;;;5.22;;
43986;SDS011;29650;47.378;8.300;2023-09-12T14:13:33;6.97;;;5.82;;
43986;SDS011;29650;47.378;8.300;2023-09-12T14:16:00;10.75;;;6.15;;
43986;SDS011;29650;47.378;8.300;2023-09-12T14:18:27;12.00;;;6.53;;
43986;SDS011;29650;47.378;8.300;2023-09-12T14:20:54;8.95;;;6.75;;
43986;SDS011;29650;47.378;8.300;2023-09-12T14:23:21;12.75;;;6.80;;
43986;SDS011;29650;47.378;8.300;2023-09-12T14:25:49;10.75;;;7.13;;
43986;SDS011;29650;47.378;8.300;2023-09-12T14:28:16;10.77;;;7.50;;
43986;SDS011;29650;47.378;8.300;2023-09-12T14:30:43;12.75;;;7.00;;
43986;SDS011;29650;47.378;8.300;2023-09-12T14:33:11;9.68;;;5.05;;
43986;SDS011;29650;47.378;8.300;2023-09-12T14:35:38;9.50;;;4.65;;
43986;SDS011;29650;47.378;8.300;2023-09-12T14:38:06;10.00;;;3.00;;
43986;SDS011;29650;47.378;8.300;2023-09-12T14:40:32;5.95;;;2.25;;
43986;SDS011;29650;47.378;8.300;2023-09-12T14:43:01;7.40;;;1.90;;
43986;SDS011;29650;47.378;8.300;2023-09-12T14:45:28;7.40;;;2.17;;
43986;SDS011;29650;47.378;8.300;2023-09-12T14:47:56;8.48;;;2.05;;
43986;SDS011;29650;47.378;8.300;2023-09-12T14:50:23;6.10;;;1.75;;
43986;SDS011;29650;47.378;8.300;2023-09-12T14:52:51;8.10;;;1.77;;
43986;SDS011;29650;47.378;8.300;2023-09-12T14:55:18;5.63;;;1.70;;
43986;SDS011;29650;47.378;8.300;2023-09-12T14:57:44;4.18;;;1.70;;
43986;SDS011;29650;47.378;8.300;2023-09-12T15:00:13;6.93;;;1.80;;
43986;SDS011;29650;47.378;8.300;2023-09-12T15:02:40;7.93;;;1.70;;
43986;SDS011;29650;47.378;8.300;2023-09-12T15:05:07;4.32;;;1.70;;
43986;SDS011;29650;47.378;8.300;2023-09-12T15:07:34;2.88;;;1.58;;